createdAt,value
2017-11-01T00:00:02.532Z,1007.17
2017-11-01T00:01:02.550Z,1007.15
2017-11-01T00:02:02.569Z,1007.15
2017-11-01T00:03:02.589Z,1007.16
2017-11-01T00:04:02.604Z,1007.12
2017-11-01T00:05:02.767Z,1007.11
2017-11-01T00:06:02.637Z,1007.11
2017-11-01T00:07:02.675Z,1007.12
2017-11-01T00:08:02.675Z,1007.16
2017-11-01T00:09:02.693Z,1007.16
2017-11-01T00:10:02.711Z,1007.17
2017-11-01T00:11:02.725Z,1007.20
2017-11-01T00:12:02.748Z,1007.19
2017-11-01T00:13:02.762Z,1007.24
2017-11-01T00:14:02.783Z,1007.18
2017-11-01T00:15:02.803Z,1007.18
2017-11-01T00:16:02.815Z,1007.18
2017-11-01T00:17:02.830Z,1007.18
2017-11-01T00:18:02.850Z,1007.13
2017-11-01T00:19:02.868Z,1007.19
2017-11-01T00:20:02.884Z,1007.16
2017-11-01T00:21:02.902Z,1007.12
2017-11-01T00:22:02.930Z,1007.10
2017-11-01T00:23:02.939Z,1007.12
2017-11-01T00:24:02.956Z,1007.09
2017-11-01T00:25:02.976Z,1007.08
2017-11-01T00:26:02.990Z,1007.07
2017-11-01T00:27:03.009Z,1007.04
2017-11-01T00:28:03.025Z,1007.02
2017-11-01T00:29:03.042Z,1007.01
2017-11-01T00:30:03.061Z,1007.02
2017-11-01T00:31:03.113Z,1007.01
2017-11-01T00:32:03.098Z,1006.98
2017-11-01T00:33:03.116Z,1006.98
2017-11-01T00:34:03.131Z,1006.98
2017-11-01T00:35:03.151Z,1006.96
2017-11-01T00:36:03.170Z,1006.96
2017-11-01T00:37:03.186Z,1006.94
2017-11-01T00:38:03.202Z,1006.94
2017-11-01T00:39:03.219Z,1006.94
2017-11-01T00:40:03.238Z,1006.90
2017-11-01T00:41:03.255Z,1006.89
2017-11-01T00:42:03.279Z,1006.87
2017-11-01T00:43:03.290Z,1006.87
2017-11-01T00:44:03.307Z,1006.88
2017-11-01T00:45:03.323Z,1006.80
2017-11-01T00:46:03.341Z,1006.83
2017-11-01T00:47:03.361Z,1006.79
2017-11-01T00:48:03.375Z,1006.77
2017-11-01T00:49:03.394Z,1006.81
2017-11-01T00:50:03.413Z,1006.81
2017-11-01T00:51:03.448Z,1006.78
2017-11-01T00:52:03.445Z,1006.77
2017-11-01T00:53:03.465Z,1006.76
2017-11-01T00:54:03.483Z,1006.76
2017-11-01T00:55:03.499Z,1006.76
2017-11-01T00:56:03.516Z,1006.72
2017-11-01T00:57:03.535Z,1006.71
2017-11-01T00:58:03.551Z,1006.69
2017-11-01T00:59:03.573Z,1006.65
2017-11-01T01:00:03.590Z,1006.67
2017-11-01T01:01:03.604Z,1006.67
2017-11-01T01:02:03.621Z,1006.70
2017-11-01T01:03:03.643Z,1006.69
2017-11-01T01:04:03.657Z,1006.72
2017-11-01T01:05:03.675Z,1006.73
2017-11-01T01:06:03.694Z,1006.72
2017-11-01T01:07:03.711Z,1006.72
2017-11-01T01:08:03.727Z,1006.69
2017-11-01T01:09:03.748Z,1006.68
2017-11-01T01:10:03.767Z,1006.69
2017-11-01T01:11:03.780Z,1006.67
2017-11-01T01:12:03.799Z,1006.72
2017-11-01T01:13:03.815Z,1006.66
2017-11-01T01:14:03.832Z,1006.64
2017-11-01T01:15:03.852Z,1006.65
2017-11-01T01:16:03.870Z,1006.62
2017-11-01T01:17:03.884Z,1006.60
2017-11-01T01:18:03.903Z,1006.58
2017-11-01T01:19:03.921Z,1006.57
2017-11-01T01:20:03.940Z,1006.54
2017-11-01T01:21:03.955Z,1006.55
2017-11-01T01:22:03.976Z,1006.53
2017-11-01T01:23:03.993Z,1006.59
2017-11-01T01:24:04.008Z,1006.55
2017-11-01T01:25:04.029Z,1006.59
2017-11-01T01:26:04.045Z,1006.63
2017-11-01T01:27:04.062Z,1006.62
2017-11-01T01:28:04.081Z,1006.62
2017-11-01T01:29:04.100Z,1006.62
2017-11-01T01:30:04.117Z,1006.63
2017-11-01T01:31:04.131Z,1006.65
2017-11-01T01:32:04.150Z,1006.64
2017-11-01T01:33:04.167Z,1006.64
2017-11-01T01:34:04.184Z,1006.61
2017-11-01T01:35:04.202Z,1006.64
2017-11-01T01:36:04.219Z,1006.62
2017-11-01T01:37:04.238Z,1006.61
2017-11-01T01:38:04.253Z,1006.57
2017-11-01T01:39:04.274Z,1006.54
2017-11-01T01:40:04.288Z,1006.53
2017-11-01T01:41:04.307Z,1006.50
2017-11-01T01:42:04.323Z,1006.54
2017-11-01T01:43:04.349Z,1006.50
2017-11-01T01:44:04.359Z,1006.52
2017-11-01T01:45:04.375Z,1006.52
2017-11-01T01:46:04.403Z,1006.50
2017-11-01T01:47:04.409Z,1006.55
2017-11-01T01:48:04.427Z,1006.53
2017-11-01T01:49:04.445Z,1006.53
2017-11-01T01:50:04.461Z,1006.51
2017-11-01T01:51:04.481Z,1006.52
2017-11-01T01:52:04.496Z,1006.55
2017-11-01T01:53:04.515Z,1006.53
2017-11-01T01:54:04.531Z,1006.55
2017-11-01T01:55:04.548Z,1006.51
2017-11-01T01:56:04.564Z,1006.52
2017-11-01T01:57:04.581Z,1006.54
2017-11-01T01:58:04.602Z,1006.54
2017-11-01T01:59:04.619Z,1006.60
2017-11-01T02:00:04.634Z,1006.59
2017-11-01T02:01:04.653Z,1006.55
2017-11-01T02:02:04.669Z,1006.46
2017-11-01T02:03:04.687Z,1006.50
2017-11-01T02:04:04.707Z,1006.52
2017-11-01T02:05:04.720Z,1006.50
2017-11-01T02:06:04.742Z,1006.52
2017-11-01T02:07:04.760Z,1006.51
2017-11-01T02:08:04.771Z,1006.54
2017-11-01T02:09:04.792Z,1006.53
2017-11-01T02:10:04.809Z,1006.53
2017-11-01T02:11:04.829Z,1006.53
2017-11-01T02:12:04.844Z,1006.57
2017-11-01T02:13:04.861Z,1006.55
2017-11-01T02:14:04.876Z,1006.53
2017-11-01T02:15:04.901Z,1006.53
2017-11-01T02:16:04.913Z,1006.49
2017-11-01T02:17:04.927Z,1006.54
2017-11-01T02:18:04.948Z,1006.49
2017-11-01T02:19:04.966Z,1006.53
2017-11-01T02:20:04.987Z,1006.48
2017-11-01T02:21:04.999Z,1006.43
2017-11-01T02:22:05.014Z,1006.42
2017-11-01T02:23:05.035Z,1006.44
2017-11-01T02:24:05.054Z,1006.40
2017-11-01T02:25:05.069Z,1006.43
2017-11-01T02:26:05.089Z,1006.40
2017-11-01T02:27:05.112Z,1006.41
2017-11-01T02:28:05.121Z,1006.42
2017-11-01T02:29:05.142Z,1006.41
2017-11-01T02:30:05.159Z,1006.42
2017-11-01T02:31:05.178Z,1006.42
2017-11-01T02:32:05.191Z,1006.40
2017-11-01T02:33:05.211Z,1006.41
2017-11-01T02:34:05.226Z,1006.38
2017-11-01T02:35:05.246Z,1006.40
2017-11-01T02:36:05.262Z,1006.40
2017-11-01T02:37:05.279Z,1006.40
2017-11-01T02:38:05.297Z,1006.40
2017-11-01T02:39:05.317Z,1006.41
2017-11-01T02:40:05.334Z,1006.39
2017-11-01T02:41:05.349Z,1006.39
2017-11-01T02:42:05.368Z,1006.37
2017-11-01T02:43:05.386Z,1006.36
2017-11-01T02:44:05.404Z,1006.32
2017-11-01T02:45:05.426Z,1006.33
2017-11-01T02:46:05.439Z,1006.28
2017-11-01T02:47:05.456Z,1006.25
2017-11-01T02:48:05.470Z,1006.27
2017-11-01T02:49:05.489Z,1006.31
2017-11-01T02:50:05.507Z,1006.30
2017-11-01T02:51:05.525Z,1006.27
2017-11-01T02:52:05.541Z,1006.29
2017-11-01T02:53:05.561Z,1006.23
2017-11-01T02:54:05.577Z,1006.27
2017-11-01T02:55:05.595Z,1006.27
2017-11-01T02:56:05.613Z,1006.27
2017-11-01T02:57:05.630Z,1006.23
2017-11-01T02:58:05.649Z,1006.24
2017-11-01T02:59:05.667Z,1006.25
2017-11-01T03:00:05.683Z,1006.26
2017-11-01T03:01:05.700Z,1006.23
2017-11-01T03:02:05.718Z,1006.23
2017-11-01T03:03:05.736Z,1006.24
2017-11-01T03:04:05.753Z,1006.22
2017-11-01T03:05:05.769Z,1006.24
2017-11-01T03:06:05.790Z,1006.22
2017-11-01T03:07:05.806Z,1006.22
2017-11-01T03:08:05.835Z,1006.16
2017-11-01T03:09:05.842Z,1006.14
2017-11-01T03:10:05.858Z,1006.18
2017-11-01T03:11:05.877Z,1006.15
2017-11-01T03:12:05.892Z,1006.23
2017-11-01T03:13:05.910Z,1006.20
2017-11-01T03:14:05.928Z,1006.11
2017-11-01T03:15:05.947Z,1006.12
2017-11-01T03:16:05.968Z,1006.15
2017-11-01T03:17:05.982Z,1006.15
2017-11-01T03:18:06.000Z,1006.12
2017-11-01T03:19:06.017Z,1006.16
2017-11-01T03:20:06.037Z,1006.16
2017-11-01T03:21:06.052Z,1006.18
2017-11-01T03:22:06.074Z,1006.16
2017-11-01T03:23:06.091Z,1006.17
2017-11-01T03:24:06.108Z,1006.11
2017-11-01T03:25:06.124Z,1006.12
2017-11-01T03:26:06.141Z,1006.11
2017-11-01T03:27:06.159Z,1006.11
2017-11-01T03:28:06.177Z,1006.11
2017-11-01T03:29:06.194Z,1006.10
2017-11-01T03:30:06.215Z,1006.09
2017-11-01T03:31:06.231Z,1006.10
2017-11-01T03:32:06.246Z,1006.10
2017-11-01T03:33:06.271Z,1006.08
2017-11-01T03:34:06.284Z,1006.02
2017-11-01T03:35:06.299Z,1005.99
2017-11-01T03:36:06.320Z,1006.01
2017-11-01T03:37:06.334Z,1006.02
2017-11-01T03:38:06.351Z,1005.99
2017-11-01T03:39:06.373Z,1006.02
2017-11-01T03:40:06.387Z,1006.02
2017-11-01T03:41:06.405Z,1005.99
2017-11-01T03:42:06.422Z,1006.00
2017-11-01T03:43:06.442Z,1006.00
2017-11-01T03:44:06.457Z,1006.02
2017-11-01T03:45:06.477Z,1006.02
2017-11-01T03:46:06.495Z,1006.07
2017-11-01T03:47:06.512Z,1006.01
2017-11-01T03:48:06.529Z,1006.00
2017-11-01T03:49:06.545Z,1005.99
2017-11-01T03:50:06.563Z,1005.94
2017-11-01T03:51:06.583Z,1005.97
2017-11-01T03:52:06.598Z,1005.97
2017-11-01T03:53:06.618Z,1005.97
2017-11-01T03:54:06.644Z,1005.92
2017-11-01T03:55:06.655Z,1005.93
2017-11-01T03:56:06.668Z,1005.93
2017-11-01T03:57:06.691Z,1005.95
2017-11-01T03:58:06.705Z,1005.97
2017-11-01T03:59:06.725Z,1005.97
2017-11-01T04:00:06.741Z,1005.91
2017-11-01T04:01:06.760Z,1005.94
2017-11-01T04:02:06.776Z,1005.99
2017-11-01T04:03:06.796Z,1005.92
2017-11-01T04:04:06.813Z,1006.00
2017-11-01T04:05:06.829Z,1005.99
2017-11-01T04:06:06.846Z,1005.96
2017-11-01T04:07:06.865Z,1005.95
2017-11-01T04:08:06.883Z,1005.96
2017-11-01T04:09:06.900Z,1005.95
2017-11-01T04:10:06.916Z,1005.95
2017-11-01T04:11:06.934Z,1005.95
2017-11-01T04:12:06.954Z,1005.92
2017-11-01T04:13:07.038Z,1005.90
2017-11-01T04:14:07.003Z,1005.96
2017-11-01T04:15:07.006Z,1005.89
2017-11-01T04:16:07.024Z,1005.91
2017-11-01T04:17:07.039Z,1005.91
2017-11-01T04:18:07.058Z,1005.88
2017-11-01T04:19:07.078Z,1005.91
2017-11-01T04:20:07.094Z,1005.89
2017-11-01T04:21:07.112Z,1005.90
2017-11-01T04:22:07.155Z,1005.86
2017-11-01T04:23:07.145Z,1005.86
2017-11-01T04:24:07.168Z,1005.83
2017-11-01T04:25:07.189Z,1005.85
2017-11-01T04:26:07.200Z,1005.81
2017-11-01T04:27:07.221Z,1005.84
2017-11-01T04:28:07.236Z,1005.77
2017-11-01T04:29:07.258Z,1005.81
2017-11-01T04:30:07.271Z,1005.80
2017-11-01T04:31:07.291Z,1005.77
2017-11-01T04:32:07.308Z,1005.77
2017-11-01T04:33:07.351Z,1005.72
2017-11-01T04:34:07.346Z,1005.74
2017-11-01T04:35:07.361Z,1005.70
2017-11-01T04:36:07.375Z,1005.76
2017-11-01T04:37:07.396Z,1005.77
2017-11-01T04:38:07.412Z,1005.78
2017-11-01T04:39:07.429Z,1005.79
2017-11-01T04:40:07.451Z,1005.84
2017-11-01T04:41:07.481Z,1005.84
2017-11-01T04:42:07.667Z,1005.86
2017-11-01T04:43:07.507Z,1005.88
2017-11-01T04:44:07.516Z,1005.90
2017-11-01T04:45:07.536Z,1005.86
2017-11-01T04:46:07.554Z,1005.84
2017-11-01T04:47:07.570Z,1005.83
2017-11-01T04:48:07.589Z,1005.86
2017-11-01T04:49:07.631Z,1005.85
2017-11-01T04:50:07.644Z,1005.90
2017-11-01T04:51:07.640Z,1005.87
2017-11-01T04:52:07.657Z,1005.91
2017-11-01T04:53:07.675Z,1005.90
2017-11-01T04:54:07.695Z,1005.85
2017-11-01T04:55:07.713Z,1005.87
2017-11-01T04:56:07.732Z,1005.87
2017-11-01T04:57:07.746Z,1005.85
2017-11-01T04:58:07.764Z,1005.89
2017-11-01T04:59:07.785Z,1005.83
2017-11-01T05:00:07.800Z,1005.86
2017-11-01T05:01:07.814Z,1005.88
2017-11-01T05:02:07.833Z,1005.86
2017-11-01T05:03:07.853Z,1005.88
2017-11-01T05:04:07.873Z,1005.88
2017-11-01T05:05:07.886Z,1005.90
2017-11-01T05:06:07.906Z,1005.94
2017-11-01T05:07:07.922Z,1005.96
2017-11-01T05:08:07.938Z,1005.98
2017-11-01T05:09:07.972Z,1005.99
2017-11-01T05:10:07.971Z,1006.01
2017-11-01T05:11:07.990Z,1005.97
2017-11-01T05:12:08.010Z,1005.98
2017-11-01T05:13:08.028Z,1005.97
2017-11-01T05:14:08.045Z,1006.01
2017-11-01T05:15:08.064Z,1006.01
2017-11-01T05:16:08.078Z,1006.01
2017-11-01T05:17:08.096Z,1006.02
2017-11-01T05:18:08.115Z,1006.05
2017-11-01T05:19:08.134Z,1006.07
2017-11-01T05:20:08.150Z,1006.09
2017-11-01T05:21:08.166Z,1006.09
2017-11-01T05:22:08.201Z,1006.10
2017-11-01T05:23:08.203Z,1006.08
2017-11-01T05:24:08.228Z,1006.11
2017-11-01T05:25:08.236Z,1006.09
2017-11-01T05:26:08.257Z,1006.11
2017-11-01T05:27:08.272Z,1006.13
2017-11-01T05:28:08.289Z,1006.10
2017-11-01T05:29:08.305Z,1006.06
2017-11-01T05:30:08.324Z,1006.05
2017-11-01T05:31:08.341Z,1006.06
2017-11-01T05:32:08.362Z,1006.04
2017-11-01T05:33:08.375Z,1005.94
2017-11-01T05:34:08.401Z,1005.96
2017-11-01T05:35:08.412Z,1005.89
2017-11-01T05:36:08.427Z,1005.87
2017-11-01T05:37:08.452Z,1005.85
2017-11-01T05:38:08.463Z,1005.85
2017-11-01T05:39:08.483Z,1005.83
2017-11-01T05:40:08.499Z,1005.80
2017-11-01T05:41:08.517Z,1005.79
2017-11-01T05:42:08.535Z,1005.75
2017-11-01T05:43:08.554Z,1005.78
2017-11-01T05:44:08.573Z,1005.78
2017-11-01T05:45:08.589Z,1005.80
2017-11-01T05:46:08.606Z,1005.82
2017-11-01T05:47:08.632Z,1005.79
2017-11-01T05:48:08.642Z,1005.80
2017-11-01T05:49:08.661Z,1005.80
2017-11-01T05:50:08.681Z,1005.81
2017-11-01T05:51:08.697Z,1005.84
2017-11-01T05:52:08.713Z,1005.83
2017-11-01T05:53:08.733Z,1005.86
2017-11-01T05:54:08.749Z,1005.84
2017-11-01T05:55:08.770Z,1005.82
2017-11-01T05:56:08.786Z,1005.89
2017-11-01T05:57:08.804Z,1005.82
2017-11-01T05:58:08.821Z,1005.83
2017-11-01T05:59:08.839Z,1005.86
2017-11-01T06:00:08.857Z,1005.85
2017-11-01T06:01:08.873Z,1005.82
2017-11-01T06:02:08.895Z,1005.78
2017-11-01T06:03:08.912Z,1005.82
2017-11-01T06:04:08.926Z,1005.85
2017-11-01T06:05:08.946Z,1005.83
2017-11-01T06:06:08.964Z,1005.89
2017-11-01T06:07:08.985Z,1005.93
2017-11-01T06:08:09.001Z,1005.95
2017-11-01T06:09:09.026Z,1005.89
2017-11-01T06:10:09.036Z,1005.91
2017-11-01T06:11:09.058Z,1005.89
2017-11-01T06:12:09.073Z,1005.90
2017-11-01T06:13:09.095Z,1005.90
2017-11-01T06:14:09.107Z,1005.94
2017-11-01T06:15:09.126Z,1005.94
2017-11-01T06:16:09.145Z,1005.96
2017-11-01T06:17:09.162Z,1005.96
2017-11-01T06:18:09.183Z,1006.02
2017-11-01T06:19:09.200Z,1005.97
2017-11-01T06:20:09.216Z,1006.03
2017-11-01T06:21:09.232Z,1005.99
2017-11-01T06:22:09.250Z,1006.01
2017-11-01T06:23:09.273Z,1006.01
2017-11-01T06:24:09.285Z,1006.03
2017-11-01T06:25:09.306Z,1006.06
2017-11-01T06:26:09.323Z,1006.04
2017-11-01T06:27:09.344Z,1006.04
2017-11-01T06:28:09.359Z,1006.03
2017-11-01T06:29:09.378Z,1006.05
2017-11-01T06:30:09.395Z,1006.06
2017-11-01T06:31:09.448Z,1006.07
2017-11-01T06:32:09.428Z,1006.04
2017-11-01T06:33:09.448Z,1006.00
2017-11-01T06:34:09.466Z,1006.01
2017-11-01T06:35:09.488Z,1006.00
2017-11-01T06:36:09.501Z,1005.95
2017-11-01T06:37:09.522Z,1005.99
2017-11-01T06:38:09.551Z,1005.96
2017-11-01T06:39:09.553Z,1005.94
2017-11-01T06:40:09.571Z,1005.95
2017-11-01T06:41:09.592Z,1005.99
2017-11-01T06:42:09.617Z,1006.01
2017-11-01T06:43:09.629Z,1006.01
2017-11-01T06:44:09.645Z,1005.99
2017-11-01T06:45:09.673Z,1006.01
2017-11-01T06:46:09.678Z,1006.04
2017-11-01T06:47:09.695Z,1006.07
2017-11-01T06:48:09.716Z,1006.10
2017-11-01T06:49:09.734Z,1006.11
2017-11-01T06:50:09.753Z,1006.09
2017-11-01T06:51:09.772Z,1006.11
2017-11-01T06:52:09.794Z,1006.15
2017-11-01T06:53:09.802Z,1006.18
2017-11-01T06:54:09.824Z,1006.19
2017-11-01T06:55:09.846Z,1006.26
2017-11-01T06:56:09.886Z,1006.32
2017-11-01T06:57:09.875Z,1006.38
2017-11-01T06:58:09.892Z,1006.39
2017-11-01T06:59:09.917Z,1006.40
2017-11-01T07:00:09.940Z,1006.42
2017-11-01T07:01:09.946Z,1006.40
2017-11-01T07:02:09.965Z,1006.47
2017-11-01T07:03:09.983Z,1006.48
2017-11-01T07:04:10.352Z,1006.52
2017-11-01T07:05:10.018Z,1006.57
2017-11-01T07:06:10.035Z,1006.60
2017-11-01T07:07:10.056Z,1006.55
2017-11-01T07:08:10.071Z,1006.55
2017-11-01T07:09:10.091Z,1006.57
2017-11-01T07:10:10.115Z,1006.53
2017-11-01T07:11:10.138Z,1006.57
2017-11-01T07:12:10.141Z,1006.61
2017-11-01T07:13:10.180Z,1006.57
2017-11-01T07:14:10.192Z,1006.61
2017-11-01T07:15:10.197Z,1006.62
2017-11-01T07:16:10.233Z,1006.61
2017-11-01T07:17:10.231Z,1006.59
2017-11-01T07:18:10.252Z,1006.61
2017-11-01T07:19:10.267Z,1006.64
2017-11-01T07:20:10.286Z,1006.61
2017-11-01T07:21:10.312Z,1006.62
2017-11-01T07:22:10.357Z,1006.62
2017-11-01T07:23:10.354Z,1006.64
2017-11-01T07:24:10.355Z,1006.55
2017-11-01T07:25:10.376Z,1006.57
2017-11-01T07:26:10.393Z,1006.57
2017-11-01T07:27:10.415Z,1006.60
2017-11-01T07:28:10.429Z,1006.62
2017-11-01T07:29:10.447Z,1006.63
2017-11-01T07:30:10.477Z,1006.60
2017-11-01T07:31:10.485Z,1006.64
2017-11-01T07:32:10.508Z,1006.60
2017-11-01T07:33:10.518Z,1006.62
2017-11-01T07:34:10.537Z,1006.62
2017-11-01T07:35:10.565Z,1006.65
2017-11-01T07:36:10.594Z,1006.60
2017-11-01T07:37:10.609Z,1006.62
2017-11-01T07:38:10.607Z,1006.64
2017-11-01T07:39:10.645Z,1006.70
2017-11-01T07:40:10.647Z,1006.63
2017-11-01T07:41:10.662Z,1006.62
2017-11-01T07:42:10.679Z,1006.66
2017-11-01T07:43:10.698Z,1006.70
2017-11-01T07:44:10.741Z,1006.70
2017-11-01T07:45:10.758Z,1006.68
2017-11-01T07:46:10.756Z,1006.64
2017-11-01T07:47:10.844Z,1006.73
2017-11-01T07:48:10.810Z,1006.71
2017-11-01T07:49:10.857Z,1006.76
2017-11-01T07:50:10.830Z,1006.78
2017-11-01T07:51:10.874Z,1006.76
2017-11-01T07:52:10.893Z,1006.75
2017-11-01T07:53:10.940Z,1006.76
2017-11-01T07:54:10.902Z,1006.79
2017-11-01T07:55:10.916Z,1006.80
2017-11-01T07:56:10.937Z,1006.84
2017-11-01T07:57:10.952Z,1006.78
2017-11-01T07:58:10.974Z,1006.82
2017-11-01T07:59:10.988Z,1006.83
2017-11-01T08:00:11.011Z,1006.86
2017-11-01T08:01:11.025Z,1006.84
2017-11-01T08:02:11.044Z,1006.85
2017-11-01T08:03:11.066Z,1006.90
2017-11-01T08:04:11.103Z,1006.86
2017-11-01T08:05:11.099Z,1006.85
2017-11-01T08:06:11.118Z,1006.85
2017-11-01T08:07:11.136Z,1006.83
2017-11-01T08:08:11.152Z,1006.79
2017-11-01T08:09:11.168Z,1006.78
2017-11-01T08:10:11.187Z,1006.70
2017-11-01T08:11:11.207Z,1006.75
2017-11-01T08:12:11.225Z,1006.74
2017-11-01T08:13:11.241Z,1006.74
2017-11-01T08:14:11.267Z,1006.69
2017-11-01T08:15:11.281Z,1006.62
2017-11-01T08:16:11.296Z,1006.65
2017-11-01T08:17:11.314Z,1006.71
2017-11-01T08:18:11.332Z,1006.70
2017-11-01T08:19:11.352Z,1006.70
2017-11-01T08:20:11.367Z,1006.68
2017-11-01T08:21:11.388Z,1006.69
2017-11-01T08:22:11.407Z,1006.70
2017-11-01T08:23:11.424Z,1006.70
2017-11-01T08:24:11.443Z,1006.67
2017-11-01T08:25:11.461Z,1006.70
2017-11-01T08:26:11.480Z,1006.71
2017-11-01T08:27:11.514Z,1006.73
2017-11-01T08:28:11.520Z,1006.75
2017-11-01T08:29:11.547Z,1006.73
2017-11-01T08:30:11.558Z,1006.70
2017-11-01T08:31:11.570Z,1006.71
2017-11-01T08:32:11.591Z,1006.71
2017-11-01T08:33:11.605Z,1006.69
2017-11-01T08:34:11.623Z,1006.71
2017-11-01T08:35:11.642Z,1006.74
2017-11-01T08:36:11.662Z,1006.77
2017-11-01T08:37:11.678Z,1006.79
2017-11-01T08:38:11.697Z,1006.78
2017-11-01T08:39:11.714Z,1006.84
2017-11-01T08:40:11.739Z,1006.82
2017-11-01T08:41:11.752Z,1006.80
2017-11-01T08:42:11.770Z,1006.79
2017-11-01T08:43:11.792Z,1006.78
2017-11-01T08:44:11.815Z,1006.82
2017-11-01T08:45:11.822Z,1006.76
2017-11-01T08:46:11.840Z,1006.70
2017-11-01T08:47:11.865Z,1006.74
2017-11-01T08:48:11.878Z,1006.78
2017-11-01T08:49:11.901Z,1006.76
2017-11-01T08:50:11.921Z,1006.81
2017-11-01T08:51:11.937Z,1006.80
2017-11-01T08:52:11.953Z,1006.80
2017-11-01T08:53:11.970Z,1006.81
2017-11-01T08:54:11.992Z,1006.84
2017-11-01T08:55:12.006Z,1006.83
2017-11-01T08:56:12.028Z,1006.85
2017-11-01T08:57:12.042Z,1006.77
2017-11-01T08:58:12.064Z,1006.75
2017-11-01T08:59:12.091Z,1006.78
2017-11-01T09:00:12.099Z,1006.72
2017-11-01T09:01:12.118Z,1006.74
2017-11-01T09:02:12.133Z,1006.73
2017-11-01T09:03:12.154Z,1006.74
2017-11-01T09:04:12.175Z,1006.73
2017-11-01T09:05:12.189Z,1006.73
2017-11-01T09:06:12.213Z,1006.77
2017-11-01T09:07:12.226Z,1006.80
2017-11-01T09:08:12.243Z,1006.80
2017-11-01T09:09:12.262Z,1006.84
2017-11-01T09:10:12.281Z,1006.85
2017-11-01T09:11:12.307Z,1006.81
2017-11-01T09:12:12.315Z,1006.86
2017-11-01T09:13:12.337Z,1006.87
2017-11-01T09:14:12.359Z,1006.92
2017-11-01T09:15:12.384Z,1006.96
2017-11-01T09:16:12.392Z,1007.02
2017-11-01T09:17:12.409Z,1007.00
2017-11-01T09:18:12.426Z,1006.98
2017-11-01T09:19:12.446Z,1006.93
2017-11-01T09:20:12.462Z,1006.93
2017-11-01T09:21:12.481Z,1006.90
2017-11-01T09:22:12.500Z,1006.92
2017-11-01T09:23:12.519Z,1006.92
2017-11-01T09:24:12.539Z,1006.91
2017-11-01T09:25:12.574Z,1006.87
2017-11-01T09:26:12.585Z,1006.88
2017-11-01T09:27:12.595Z,1006.87
2017-11-01T09:28:12.612Z,1006.89
2017-11-01T09:29:12.631Z,1006.89
2017-11-01T09:30:12.653Z,1006.94
2017-11-01T09:31:12.667Z,1006.96
2017-11-01T09:32:12.686Z,1006.97
2017-11-01T09:33:12.706Z,1006.98
2017-11-01T09:34:12.724Z,1006.96
2017-11-01T09:35:12.750Z,1006.96
2017-11-01T09:36:12.759Z,1006.97
2017-11-01T09:37:12.777Z,1006.94
2017-11-01T09:38:12.799Z,1006.92
2017-11-01T09:39:12.816Z,1006.94
2017-11-01T09:40:12.840Z,1006.96
2017-11-01T09:41:12.852Z,1007.01
2017-11-01T09:42:12.870Z,1006.95
2017-11-01T09:43:12.904Z,1006.95
2017-11-01T09:44:12.962Z,1006.89
2017-11-01T09:45:12.974Z,1006.90
2017-11-01T09:46:13.024Z,1006.90
2017-11-01T09:47:13.032Z,1006.89
2017-11-01T09:48:13.013Z,1006.93
2017-11-01T09:49:13.032Z,1006.92
2017-11-01T09:50:13.095Z,1006.89
2017-11-01T09:51:13.077Z,1006.85
2017-11-01T09:52:13.129Z,1006.91
2017-11-01T09:53:13.101Z,1006.91
2017-11-01T09:54:13.103Z,1006.89
2017-11-01T09:55:13.116Z,1006.87
2017-11-01T09:56:13.148Z,1006.89
2017-11-01T09:57:13.176Z,1006.94
2017-11-01T09:58:13.171Z,1006.96
2017-11-01T09:59:13.189Z,1006.95
2017-11-01T10:00:13.206Z,1006.94
2017-11-01T10:01:13.789Z,1006.95
2017-11-01T10:02:13.249Z,1006.96
2017-11-01T10:03:13.273Z,1006.99
2017-11-01T10:04:13.285Z,1006.97
2017-11-01T10:05:13.300Z,1006.96
2017-11-01T10:06:13.320Z,1006.96
2017-11-01T10:07:13.338Z,1006.98
2017-11-01T10:08:13.375Z,1006.96
2017-11-01T10:09:13.378Z,1006.96
2017-11-01T10:10:13.425Z,1006.92
2017-11-01T10:11:13.414Z,1006.90
2017-11-01T10:12:13.435Z,1006.95
2017-11-01T10:13:13.457Z,1006.90
2017-11-01T10:14:13.477Z,1006.89
2017-11-01T10:15:13.490Z,1006.93
2017-11-01T10:16:13.507Z,1006.90
2017-11-01T10:17:13.528Z,1006.83
2017-11-01T10:18:13.543Z,1006.90
2017-11-01T10:19:13.569Z,1006.85
2017-11-01T10:20:13.578Z,1006.82
2017-11-01T10:21:13.601Z,1006.90
2017-11-01T10:22:13.625Z,1006.91
2017-11-01T10:23:13.637Z,1006.95
2017-11-01T10:24:13.658Z,1006.92
2017-11-01T10:25:13.696Z,1006.89
2017-11-01T10:26:13.700Z,1006.91
2017-11-01T10:27:13.716Z,1006.94
2017-11-01T10:28:13.732Z,1006.91
2017-11-01T10:29:13.751Z,1006.95
2017-11-01T10:30:13.770Z,1006.93
2017-11-01T10:31:13.787Z,1006.91
2017-11-01T10:32:13.807Z,1006.90
2017-11-01T10:33:13.828Z,1006.91
2017-11-01T10:34:13.847Z,1006.95
2017-11-01T10:35:13.879Z,1006.91
2017-11-01T10:36:13.892Z,1006.88
2017-11-01T10:37:13.903Z,1006.87
2017-11-01T10:38:13.920Z,1006.89
2017-11-01T10:39:13.940Z,1006.83
2017-11-01T10:40:13.960Z,1006.84
2017-11-01T10:41:13.976Z,1006.87
2017-11-01T10:42:13.994Z,1006.84
2017-11-01T10:43:14.014Z,1006.80
2017-11-01T10:44:14.033Z,1006.80
2017-11-01T10:45:14.055Z,1006.82
2017-11-01T10:46:14.076Z,1006.83
2017-11-01T10:47:14.087Z,1006.81
2017-11-01T10:48:14.104Z,1006.79
2017-11-01T10:49:14.129Z,1006.75
2017-11-01T10:50:14.147Z,1006.82
2017-11-01T10:51:14.165Z,1006.80
2017-11-01T10:52:14.185Z,1006.83
2017-11-01T10:53:14.202Z,1006.72
2017-11-01T10:54:14.229Z,1006.80
2017-11-01T10:55:14.245Z,1006.76
2017-11-01T10:56:14.257Z,1006.76
2017-11-01T10:57:14.275Z,1006.76
2017-11-01T10:58:14.294Z,1006.79
2017-11-01T10:59:14.312Z,1006.76
2017-11-01T11:00:14.333Z,1006.78
2017-11-01T11:01:14.350Z,1006.74
2017-11-01T11:02:14.371Z,1006.79
2017-11-01T11:03:14.389Z,1006.79
2017-11-01T11:04:14.402Z,1006.77
2017-11-01T11:05:14.423Z,1006.78
2017-11-01T11:06:14.444Z,1006.74
2017-11-01T11:07:14.462Z,1006.74
2017-11-01T11:08:14.478Z,1006.76
2017-11-01T11:09:14.500Z,1006.73
2017-11-01T11:10:14.518Z,1006.70
2017-11-01T11:11:14.538Z,1006.67
2017-11-01T11:12:14.556Z,1006.69
2017-11-01T11:13:14.576Z,1006.66
2017-11-01T11:14:14.594Z,1006.73
2017-11-01T11:15:14.612Z,1006.74
2017-11-01T11:16:14.630Z,1006.73
2017-11-01T11:17:14.648Z,1006.74
2017-11-01T11:18:14.671Z,1006.79
2017-11-01T11:19:14.691Z,1006.77
2017-11-01T11:20:14.705Z,1006.79
2017-11-01T11:21:14.731Z,1006.77
2017-11-01T11:22:14.744Z,1006.78
2017-11-01T11:23:14.761Z,1006.78
2017-11-01T11:24:14.778Z,1006.77
2017-11-01T11:25:14.802Z,1006.76
2017-11-01T11:26:14.825Z,1006.77
2017-11-01T11:27:14.838Z,1006.80
2017-11-01T11:28:14.857Z,1006.78
2017-11-01T11:29:14.874Z,1006.77
2017-11-01T11:30:14.893Z,1006.78
2017-11-01T11:31:14.912Z,1006.77
2017-11-01T11:32:14.944Z,1006.73
2017-11-01T11:33:14.951Z,1006.74
2017-11-01T11:34:14.967Z,1006.73
2017-11-01T11:35:14.987Z,1006.70
2017-11-01T11:36:15.005Z,1006.68
2017-11-01T11:37:15.025Z,1006.68
2017-11-01T11:38:15.045Z,1006.66
2017-11-01T11:39:15.063Z,1006.66
2017-11-01T11:40:15.079Z,1006.62
2017-11-01T11:41:15.099Z,1006.64
2017-11-01T11:42:15.119Z,1006.61
2017-11-01T11:43:15.138Z,1006.71
2017-11-01T11:44:15.164Z,1006.69
2017-11-01T11:45:15.177Z,1006.59
2017-11-01T11:46:15.195Z,1006.61
2017-11-01T11:47:15.215Z,1006.62
2017-11-01T11:48:15.235Z,1006.64
2017-11-01T11:49:15.254Z,1006.57
2017-11-01T11:50:15.272Z,1006.60
2017-11-01T11:51:15.291Z,1006.54
2017-11-01T11:52:15.311Z,1006.56
2017-11-01T11:53:15.328Z,1006.58
2017-11-01T11:54:15.347Z,1006.58
2017-11-01T11:55:15.371Z,1006.59
2017-11-01T11:56:15.390Z,1006.56
2017-11-01T11:57:15.408Z,1006.57
2017-11-01T11:58:15.428Z,1006.57
2017-11-01T11:59:15.445Z,1006.52
2017-11-01T12:00:15.631Z,1006.55
2017-11-01T12:01:15.481Z,1006.44
2017-11-01T12:02:15.502Z,1006.41
2017-11-01T12:03:15.523Z,1006.41
2017-11-01T12:04:15.540Z,1006.40
2017-11-01T12:05:15.559Z,1006.39